Time;durP1;ratioP1;P1;durP2;ratioP2;P2;SDS_P1;SDS_P2;PMS_P1;PMS_P2;Temp;Humidity;BMP_temperature;BMP_pressure;BME280_temperature;BME280_humidity;BME280_pressure;Samples;Min_cycle;Max_cycle;Signal;HPM_P1;HPM_P2
2023/06/19 00:00:45;;;;;;;7.20;5.35;;;24.10;59.90;;;;;;7683132;22;81167;-60
2023/06/19 00:03:46;;;;;;;10.20;5.55;;;24.10;59.90;;;;;;7683024;22;80469;-59
2023/06/19 00:06:46;;;;;;;9.13;5.55;;;24.20;59.70;;;;;;7655513;22;80458;-59
2023/06/19 00:09:47;;;;;;;8.18;5.45;;;24.20;59.80;;;;;;7683123;22;80607;-60
2023/06/19 00:12:47;;;;;;;6.88;5.05;;;24.20;59.80;;;;;;7682484;22;80392;-58
2023/06/19 00:15:48;;;;;;;5.70;4.82;;;24.20;59.90;;;;;;7682890;22;80384;-69
2023/06/19 00:18:48;;;;;;;9.25;5.18;;;24.20;59.90;;;;;;7678155;22;80582;-69
2023/06/19 00:21:49;;;;;;;7.03;4.63;;;24.20;59.90;;;;;;7679664;22;80315;-68
2023/06/19 00:24:51;;;;;;;7.68;5.50;;;24.20;59.80;;;;;;7681805;22;81600;-68
2023/06/19 00:27:52;;;;;;;5.53;4.53;;;24.20;60.00;;;;;;7678139;22;80743;-68
2023/06/19 00:30:52;;;;;;;5.90;4.88;;;24.20;60.10;;;;;;7679893;22;81189;-69
2023/06/19 00:33:55;;;;;;;6.15;5.03;;;24.20;60.00;;;;;;7680842;22;81353;-58
2023/06/19 00:36:56;;;;;;;7.07;5.35;;;24.10;60.10;;;;;;7678794;22;80507;-58
2023/06/19 00:39:56;;;;;;;7.60;4.65;;;24.20;60.10;;;;;;7679775;22;80296;-59
2023/06/19 00:42:57;;;;;;;6.13;5.03;;;24.20;60.10;;;;;;7680680;22;80245;-59
2023/06/19 00:45:57;;;;;;;7.18;5.15;;;24.20;59.90;;;;;;7652089;22;83064;-60
2023/06/19 00:48:58;;;;;;;7.35;5.00;;;24.20;59.80;;;;;;7676321;22;80767;-58
2023/06/19 00:51:58;;;;;;;6.20;5.13;;;24.20;60.00;;;;;;7676008;22;80765;-68
2023/06/19 00:54:59;;;;;;;6.03;4.93;;;24.10;60.00;;;;;;7677458;22;81339;-66
2023/06/19 00:58:00;;;;;;;6.40;4.75;;;24.10;59.80;;;;;;7678587;22;80407;-67
2023/06/19 01:01:01;;;;;;;6.32;5.03;;;24.10;59.70;;;;;;7652977;22;83408;-68
2023/06/19 01:04:01;;;;;;;6.28;5.07;;;24.10;59.80;;;;;;7653421;22;83063;-68
2023/06/19 01:07:02;;;;;;;8.02;5.35;;;24.10;59.70;;;;;;7679847;22;80930;-68
2023/06/19 01:10:04;;;;;;;6.75;5.03;;;24.10;59.70;;;;;;7653095;22;83158;-68
2023/06/19 01:13:06;;;;;;;6.63;5.25;;;24.10;60.40;;;;;;7678915;22;80940;-68
2023/06/19 01:16:07;;;;;;;9.50;5.35;;;24.10;59.70;;;;;;7678868;22;80794;-67
2023/06/19 01:19:08;;;;;;;5.50;4.68;;;24.20;59.70;;;;;;7653787;22;81508;-66
2023/06/19 01:22:08;;;;;;;7.05;5.20;;;24.10;59.70;;;;;;7650074;22;81513;-67
2023/06/19 01:25:09;;;;;;;9.43;5.78;;;24.10;59.70;;;;;;7649836;22;83113;-68
2023/06/19 01:28:10;;;;;;;7.18;5.07;;;24.10;59.70;;;;;;7675551;22;80486;-67
2023/06/19 01:31:11;;;;;;;6.75;4.85;;;24.10;59.70;;;;;;7675732;22;81319;-67
2023/06/19 01:34:11;;;;;;;8.00;4.93;;;24.10;59.80;;;;;;7676330;22;80615;-66
2023/06/19 01:37:12;;;;;;;7.95;4.85;;;24.10;59.70;;;;;;7651467;22;83293;-67
2023/06/19 01:40:12;;;;;;;6.53;4.93;;;24.10;59.70;;;;;;7652705;22;81244;-68
2023/06/19 01:43:13;;;;;;;6.00;4.90;;;24.10;59.60;;;;;;7680128;22;80063;-70
2023/06/19 01:46:14;;;;;;;5.95;4.88;;;24.10;59.50;;;;;;7681495;22;80044;-67
2023/06/19 01:49:14;;;;;;;5.38;4.75;;;24.10;59.50;;;;;;7681268;22;81568;-70
2023/06/19 01:52:15;;;;;;;5.80;5.00;;;24.10;59.60;;;;;;7680185;22;79965;-69
2023/06/19 01:55:15;;;;;;;6.85;5.50;;;24.10;59.50;;;;;;7652833;22;81612;-69
2023/06/19 01:58:16;;;;;;;7.85;5.00;;;24.10;59.50;;;;;;7652406;22;83390;-70
2023/06/19 02:01:16;;;;;;;6.45;4.95;;;24.10;59.40;;;;;;7651663;22;83049;-70
2023/06/19 02:04:17;;;;;;;6.18;4.97;;;24.00;59.40;;;;;;7680975;22;80249;-70
2023/06/19 02:07:17;;;;;;;9.07;4.53;;;24.10;59.40;;;;;;7652903;22;83348;-70
2023/06/19 02:10:18;;;;;;;5.40;4.55;;;24.00;59.30;;;;;;7680634;22;80599;-69
2023/06/19 02:13:18;;;;;;;7.00;5.13;;;24.00;59.30;;;;;;7652063;22;82877;-69
2023/06/19 02:16:19;;;;;;;6.72;5.20;;;24.00;59.40;;;;;;7652225;22;83140;-70
2023/06/19 02:19:20;;;;;;;6.10;5.20;;;24.00;59.40;;;;;;7680380;22;80643;-71
2023/06/19 02:22:20;;;;;;;5.63;5.03;;;24.00;59.20;;;;;;7679106;22;80163;-59
2023/06/19 02:25:21;;;;;;;7.57;5.25;;;24.00;59.20;;;;;;7653027;22;81164;-59
2023/06/19 02:28:22;;;;;;;6.10;5.10;;;24.00;59.20;;;;;;7678511;22;81378;-59
2023/06/19 02:31:22;;;;;;;5.65;4.68;;;24.00;59.20;;;;;;7651166;22;81739;-59
2023/06/19 02:34:24;;;;;;;5.50;4.57;;;24.00;59.20;;;;;;7678933;22;80933;-58
2023/06/19 02:37:24;;;;;;;5.10;4.45;;;24.00;59.20;;;;;;7679153;22;80278;-58
2023/06/19 02:40:25;;;;;;;6.03;4.93;;;24.00;59.30;;;;;;7678306;22;80405;-59
2023/06/19 02:43:25;;;;;;;5.25;4.40;;;24.00;59.20;;;;;;7652474;22;81357;-58
2023/06/19 02:46:26;;;;;;;6.93;4.90;;;24.00;59.10;;;;;;7651482;22;83378;-58
2023/06/19 02:49:26;;;;;;;5.85;4.93;;;24.00;59.10;;;;;;7680058;22;80354;-58
2023/06/19 02:52:27;;;;;;;6.05;4.47;;;24.10;59.10;;;;;;7651058;22;80600;-58
2023/06/19 02:55:27;;;;;;;5.85;4.82;;;24.00;59.10;;;;;;7627287;22;83156;-58
2023/06/19 02:58:28;;;;;;;7.10;4.90;;;24.00;59.20;;;;;;7651016;22;82751;-59
2023/06/19 03:01:30;;;;;;;6.40;4.68;;;24.00;59.20;;;;;;7652743;22;83304;-59
2023/06/19 03:04:30;;;;;;;6.85;5.10;;;24.00;59.20;;;;;;7678581;22;80565;-59
2023/06/19 03:07:32;;;;;;;5.72;4.50;;;24.00;59.20;;;;;;7678996;22;80484;-59
2023/06/19 03:10:32;;;;;;;10.27;5.28;;;24.00;59.20;;;;;;7678531;22;80724;-59
2023/06/19 03:13:33;;;;;;;6.60;4.63;;;24.00;59.00;;;;;;7652859;22;83390;-59
2023/06/19 03:16:33;;;;;;;6.20;5.15;;;24.00;59.00;;;;;;7651823;22;82695;-58
2023/06/19 03:19:34;;;;;;;4.97;4.47;;;24.00;59.00;;;;;;7652532;22;82797;-59
2023/06/19 03:22:35;;;;;;;6.22;5.10;;;24.00;59.00;;;;;;7677613;22;80638;-59
2023/06/19 03:25:35;;;;;;;7.28;4.95;;;24.00;59.00;;;;;;7651091;22;83355;-59
2023/06/19 03:28:37;;;;;;;5.78;4.90;;;24.00;59.00;;;;;;7651267;22;83205;-59
2023/06/19 03:31:39;;;;;;;6.32;4.90;;;24.10;59.00;;;;;;7651561;22;83080;-58
2023/06/19 03:34:41;;;;;;;5.78;5.05;;;24.10;59.00;;;;;;7650977;22;83550;-59
2023/06/19 03:37:43;;;;;;;5.95;4.55;;;24.00;58.90;;;;;;7651422;22;83337;-58
2023/06/19 03:40:44;;;;;;;7.25;4.55;;;24.00;59.00;;;;;;7678632;22;80518;-59
2023/06/19 03:43:46;;;;;;;5.13;4.43;;;24.10;59.10;;;;;;7650443;22;83229;-59
2023/06/19 03:46:47;;;;;;;6.32;4.97;;;24.10;59.00;;;;;;7651945;22;83439;-59
2023/06/19 03:49:48;;;;;;;5.38;4.60;;;24.00;59.00;;;;;;7650517;22;83124;-59
2023/06/19 03:52:49;;;;;;;5.72;5.00;;;24.00;59.00;;;;;;7650766;22;83301;-58
2023/06/19 03:55:49;;;;;;;5.82;4.78;;;24.00;59.10;;;;;;7654745;22;83074;-58
2023/06/19 03:58:50;;;;;;;7.65;4.88;;;24.00;59.70;;;;;;7653748;22;83596;-59
2023/06/19 04:01:50;;;;;;;6.63;4.65;;;24.00;59.00;;;;;;7653354;22;81958;-58
2023/06/19 04:04:52;;;;;;;5.63;4.13;;;24.00;59.00;;;;;;7653147;22;83839;-58
2023/06/19 04:07:52;;;;;;;5.85;5.00;;;24.00;59.00;;;;;;7679484;22;80323;-59
2023/06/19 04:10:53;;;;;;;6.15;4.35;;;24.00;59.10;;;;;;7652406;22;81587;-59
2023/06/19 04:13:53;;;;;;;5.10;4.60;;;24.00;59.10;;;;;;7679507;22;80495;-58
2023/06/19 04:16:54;;;;;;;4.90;4.30;;;24.10;58.90;;;;;;7679244;22;80552;-63
2023/06/19 04:19:54;;;;;;;5.40;4.35;;;24.10;59.00;;;;;;7651843;22;81565;-60
2023/06/19 04:22:55;;;;;;;9.35;4.88;;;24.10;59.00;;;;;;7651935;22;83112;-61
2023/06/19 04:25:55;;;;;;;7.35;4.50;;;24.10;59.10;;;;;;7678713;22;80205;-60
2023/06/19 04:28:56;;;;;;;5.82;4.00;;;24.10;59.20;;;;;;7679151;22;80304;-61
2023/06/19 04:31:57;;;;;;;7.22;4.90;;;24.20;59.30;;;;;;7678580;22;80459;-60
2023/06/19 04:34:57;;;;;;;7.97;4.88;;;24.20;59.40;;;;;;7679201;22;81250;-59
2023/06/19 04:38:00;;;;;;;5.85;4.70;;;24.20;59.40;;;;;;7678532;22;80808;-61
2023/06/19 04:41:01;;;;;;;8.35;4.68;;;24.20;59.30;;;;;;7669852;22;81530;-62
2023/06/19 04:44:03;;;;;;;5.10;4.00;;;24.20;59.70;;;;;;7664989;22;81123;-61
2023/06/19 04:47:03;;;;;;;9.45;4.57;;;24.20;59.60;;;;;;7672487;22;80334;-63
2023/06/19 04:50:04;;;;;;;8.32;4.20;;;24.20;59.50;;;;;;7676995;22;80899;-67
2023/06/19 04:53:04;;;;;;;7.85;4.53;;;24.30;59.80;;;;;;7680091;22;80567;-66
2023/06/19 04:56:05;;;;;;;6.57;4.13;;;24.20;59.60;;;;;;7678541;22;80950;-64
2023/06/19 04:59:05;;;;;;;6.70;4.80;;;24.30;59.50;;;;;;7677881;22;80921;-70
2023/06/19 05:02:07;;;;;;;8.95;4.60;;;24.20;59.60;;;;;;7679232;22;81056;-63
2023/06/19 05:05:07;;;;;;;6.10;4.38;;;24.30;59.60;;;;;;7680061;22;80098;-61
2023/06/19 05:08:08;;;;;;;9.27;4.63;;;24.30;59.70;;;;;;7679169;22;80787;-59
2023/06/19 05:11:08;;;;;;;6.93;4.85;;;24.30;59.80;;;;;;7681657;22;86038;-59
2023/06/19 05:14:09;;;;;;;6.65;4.43;;;24.30;59.90;;;;;;7679674;22;80547;-60
2023/06/19 05:17:09;;;;;;;6.90;4.85;;;24.30;59.80;;;;;;7678944;22;80337;-60
2023/06/19 05:20:11;;;;;;;10.25;4.95;;;24.30;60.10;;;;;;7673905;22;80797;-61
2023/06/19 05:23:12;;;;;;;8.85;5.57;;;24.30;61.80;;;;;;7669983;22;82548;-60
2023/06/19 05:26:13;;;;;;;9.80;5.03;;;24.30;63.30;;;;;;7677109;22;80411;-61
2023/06/19 05:29:14;;;;;;;7.30;4.80;;;24.40;62.50;;;;;;7675916;22;80456;-62
2023/06/19 05:32:14;;;;;;;10.63;5.15;;;24.40;62.60;;;;;;7675907;22;80949;-59
2023/06/19 05:35:15;;;;;;;5.90;4.10;;;24.40;62.50;;;;;;7678117;22;80209;-60
2023/06/19 05:38:15;;;;;;;9.05;4.93;;;24.40;62.50;;;;;;7650222;22;82223;-59
2023/06/19 05:41:16;;;;;;;6.30;4.72;;;24.40;62.30;;;;;;7679906;22;80762;-61
2023/06/19 05:44:18;;;;;;;4.60;3.80;;;24.40;62.20;;;;;;7679420;22;80695;-66
2023/06/19 05:47:20;;;;;;;7.00;5.05;;;24.50;62.10;;;;;;7678995;22;80459;-67
2023/06/19 05:50:21;;;;;;;10.60;4.22;;;24.50;62.30;;;;;;7674009;22;80432;-68
2023/06/19 05:53:21;;;;;;;6.30;4.93;;;24.50;62.20;;;;;;7623956;22;81097;-69
2023/06/19 05:56:22;;;;;;;6.18;4.47;;;24.40;62.10;;;;;;7541159;22;82040;-67
2023/06/19 05:59:22;;;;;;;7.82;4.47;;;24.50;62.10;;;;;;7665559;22;80380;-65
2023/06/19 06:02:23;;;;;;;11.35;3.97;;;24.50;61.90;;;;;;7677951;22;80911;-68
2023/06/19 06:05:24;;;;;;;16.20;5.50;;;24.50;61.90;;;;;;7676804;22;80790;-67
2023/06/19 06:08:24;;;;;;;10.32;4.95;;;24.50;61.70;;;;;;7677923;22;81557;-66
2023/06/19 06:11:26;;;;;;;8.20;4.57;;;24.50;61.80;;;;;;7676230;22;80378;-68
2023/06/19 06:14:26;;;;;;;12.45;4.90;;;24.50;61.80;;;;;;7675860;22;81188;-65
2023/06/19 06:17:27;;;;;;;11.77;5.22;;;24.50;61.80;;;;;;7661950;22;80747;-64
2023/06/19 06:20:27;;;;;;;11.77;4.80;;;24.40;62.00;;;;;;7673447;22;80235;-69
2023/06/19 06:23:28;;;;;;;9.75;5.32;;;24.40;62.10;;;;;;7679352;22;81605;-66
2023/06/19 06:26:28;;;;;;;10.50;6.07;;;24.50;62.00;;;;;;7649363;22;81767;-67
2023/06/19 06:29:29;;;;;;;12.70;5.47;;;24.50;61.90;;;;;;7678149;22;82804;-73
2023/06/19 06:32:30;;;;;;;7.00;4.95;;;24.50;62.00;;;;;;7675330;22;80470;-77
2023/06/19 06:35:31;;;;;;;15.52;5.35;;;24.50;62.00;;;;;;7670300;22;80334;-74
2023/06/19 06:38:32;;;;;;;8.00;5.53;;;24.50;61.80;;;;;;7671388;22;80528;-71
2023/06/19 06:41:32;;;;;;;14.40;5.22;;;24.50;61.70;;;;;;7645507;22;80673;-66
2023/06/19 06:44:33;;;;;;;10.43;5.55;;;24.50;61.80;;;;;;7675226;22;80871;-71
2023/06/19 06:47:33;;;;;;;8.73;5.32;;;24.60;61.60;;;;;;7677063;22;86082;-70
2023/06/19 06:50:34;;;;;;;8.48;5.00;;;24.60;60.90;;;;;;7676334;22;80636;-60
2023/06/19 06:53:34;;;;;;;9.07;5.78;;;24.70;61.30;;;;;;7677511;22;81702;-74
2023/06/19 06:56:35;;;;;;;12.77;5.97;;;24.70;60.60;;;;;;7673559;22;81463;-78
2023/06/19 06:59:36;;;;;;;8.90;6.43;;;24.70;59.90;;;;;;7667711;22;80613;-76
2023/06/19 07:02:36;;;;;;;261.95;142.80;;;24.70;60.10;;;;;;7675240;22;80256;-78
2023/06/19 07:05:37;;;;;;;278.00;147.82;;;24.70;60.00;;;;;;7667081;22;85802;-70
2023/06/19 07:08:40;;;;;;;322.10;169.70;;;24.70;59.70;;;;;;7668514;22;85692;-71
2023/06/19 07:11:41;;;;;;;318.60;169.32;;;24.70;59.40;;;;;;7673882;22;84993;-71
2023/06/19 07:14:41;;;;;;;261.67;141.90;;;24.80;59.10;;;;;;7669529;22;87256;-72
2023/06/19 07:17:42;;;;;;;160.88;82.38;;;24.80;58.60;;;;;;7673585;22;85682;-69
2023/06/19 07:20:42;;;;;;;117.07;62.08;;;24.80;58.00;;;;;;7674443;22;85292;-66
2023/06/19 07:23:43;;;;;;;74.15;37.33;;;24.90;57.80;;;;;;7677427;22;83195;-68
2023/06/19 07:26:44;;;;;;;62.78;33.08;;;24.90;57.70;;;;;;7648929;22;84788;-66
2023/06/19 07:29:44;;;;;;;45.35;25.73;;;24.90;58.10;;;;;;7637926;22;82950;-71
2023/06/19 07:32:45;;;;;;;40.40;20.98;;;24.90;57.50;;;;;;7644227;22;83002;-67
2023/06/19 07:35:45;;;;;;;26.67;14.50;;;24.90;57.20;;;;;;7642341;22;82795;-68
2023/06/19 07:38:46;;;;;;;30.73;15.98;;;24.90;56.80;;;;;;7639258;22;83384;-66
2023/06/19 07:41:46;;;;;;;27.13;14.93;;;24.90;57.10;;;;;;7636653;22;83395;-64
2023/06/19 07:44:47;;;;;;;21.90;11.90;;;24.90;57.20;;;;;;7640812;22;83033;-69
2023/06/19 07:47:47;;;;;;;24.65;11.82;;;24.90;56.90;;;;;;7640867;22;83016;-65
2023/06/19 07:50:48;;;;;;;21.40;11.32;;;25.00;56.90;;;;;;7641295;22;82929;-68
2023/06/19 07:53:48;;;;;;;23.27;11.98;;;25.00;56.70;;;;;;7640197;22;83356;-58
2023/06/19 07:56:49;;;;;;;16.77;8.50;;;25.00;56.40;;;;;;7638663;22;82631;-60
2023/06/19 07:59:50;;;;;;;21.40;8.88;;;25.00;55.80;;;;;;7643642;22;83363;-61
2023/06/19 08:02:50;;;;;;;17.75;7.97;;;25.00;55.80;;;;;;7643672;22;80426;-60
2023/06/19 08:05:51;;;;;;;14.77;8.35;;;24.90;55.90;;;;;;7643859;22;80394;-60
2023/06/19 08:08:51;;;;;;;13.77;7.28;;;25.00;55.30;;;;;;7643740;22;81512;-61
2023/06/19 08:11:52;;;;;;;15.65;7.72;;;25.00;54.80;;;;;;7644286;22;81341;-60
2023/06/19 08:14:52;;;;;;;12.65;7.13;;;25.00;54.90;;;;;;7644462;22;80178;-60
2023/06/19 08:17:53;;;;;;;19.67;7.75;;;25.00;54.90;;;;;;7641534;22;80983;-60
2023/06/19 08:20:53;;;;;;;16.63;6.85;;;25.00;54.60;;;;;;7643015;22;80422;-59
2023/06/19 08:23:54;;;;;;;15.82;7.53;;;25.00;54.70;;;;;;7642533;22;80445;-59
2023/06/19 08:26:54;;;;;;;21.40;6.75;;;25.10;54.80;;;;;;7644704;22;80263;-59
2023/06/19 08:29:55;;;;;;;16.17;7.22;;;25.10;54.80;;;;;;7680475;22;80713;-64
2023/06/19 08:32:56;;;;;;;17.48;7.00;;;25.10;54.80;;;;;;7681441;22;80687;-68
2023/06/19 08:35:56;;;;;;;21.63;6.95;;;25.10;55.00;;;;;;7678895;22;81086;-66
2023/06/19 08:38:57;;;;;;;13.75;7.47;;;25.10;55.20;;;;;;7651507;22;80383;-70
2023/06/19 08:41:57;;;;;;;22.80;7.75;;;25.10;55.30;;;;;;7676567;22;80539;-67
2023/06/19 08:44:58;;;;;;;14.88;7.25;;;25.00;55.20;;;;;;7622643;22;82249;-71
2023/06/19 08:47:58;;;;;;;15.77;7.40;;;25.10;55.30;;;;;;7676545;22;80577;-66
2023/06/19 08:50:59;;;;;;;27.52;7.72;;;25.10;55.00;;;;;;7677287;22;80916;-66
2023/06/19 08:53:59;;;;;;;10.73;7.10;;;25.00;54.40;;;;;;7679675;22;80288;-66
2023/06/19 08:57:00;;;;;;;16.10;6.72;;;25.00;54.60;;;;;;7649449;22;82808;-67
2023/06/19 09:00:01;;;;;;;13.95;6.35;;;25.00;54.60;;;;;;7676933;22;80405;-64
2023/06/19 09:03:02;;;;;;;10.25;5.78;;;25.00;54.30;;;;;;7676053;22;80627;-68
2023/06/19 09:06:02;;;;;;;9.95;6.03;;;25.00;54.40;;;;;;7676527;22;80881;-67
2023/06/19 09:09:03;;;;;;;9.25;6.55;;;25.00;54.40;;;;;;7675808;22;80453;-66
2023/06/19 09:12:05;;;;;;;11.57;5.40;;;25.00;54.60;;;;;;7652393;22;81703;-66
2023/06/19 09:15:08;;;;;;;12.13;6.93;;;25.00;54.70;;;;;;7651952;22;82927;-66
2023/06/19 09:18:08;;;;;;;8.98;6.35;;;25.10;54.70;;;;;;7679831;22;80395;-65
2023/06/19 09:21:09;;;;;;;12.18;6.72;;;25.10;54.80;;;;;;7680718;22;80953;-63
2023/06/19 09:24:09;;;;;;;11.07;6.13;;;25.10;54.70;;;;;;7681344;22;81357;-64
2023/06/19 09:27:13;;;;;;;13.15;6.45;;;25.00;54.60;;;;;;7653280;22;83161;-66
2023/06/19 09:30:14;;;;;;;9.93;6.90;;;25.00;54.70;;;;;;7678247;22;85339;-66
2023/06/19 09:33:14;;;;;;;9.02;6.22;;;25.00;54.60;;;;;;7650608;22;82785;-67
2023/06/19 09:36:15;;;;;;;8.05;6.18;;;25.00;53.80;;;;;;7678860;22;81541;-67
2023/06/19 09:39:15;;;;;;;9.57;6.00;;;25.00;53.80;;;;;;7679582;22;80894;-68
2023/06/19 09:42:16;;;;;;;9.20;6.10;;;25.10;54.00;;;;;;7678645;22;80130;-65
2023/06/19 09:45:18;;;;;;;9.70;5.85;;;25.10;54.00;;;;;;7681146;22;80685;-65
2023/06/19 09:48:19;;;;;;;14.40;5.80;;;25.20;54.10;;;;;;7680465;22;80202;-72
2023/06/19 09:51:25;;;;;;;;;;;25.10;54.00;;;;;;7651072;22;82453;-65
2023/06/19 09:54:27;;;;;;;9.07;5.40;;;25.20;54.30;;;;;;7659229;22;83213;-64
2023/06/19 09:57:28;;;;;;;9.45;6.10;;;25.20;54.10;;;;;;7679422;22;80323;-67
2023/06/19 10:00:31;;;;;;;7.60;6.05;;;25.30;54.20;;;;;;7680617;22;80554;-66
2023/06/19 10:03:31;;;;;;;7.90;5.10;;;25.30;52.80;;;;;;7679484;22;81178;-64
2023/06/19 10:06:32;;;;;;;6.32;5.25;;;25.30;51.60;;;;;;7680982;22;80911;-67
2023/06/19 10:09:32;;;;;;;15.10;7.38;;;25.40;51.70;;;;;;7679493;22;80865;-64
2023/06/19 10:12:33;;;;;;;9.98;7.13;;;25.40;55.10;;;;;;7679651;22;80755;-64
2023/06/19 10:15:34;;;;;;;11.32;7.60;;;25.40;54.10;;;;;;7679214;22;80528;-63
2023/06/19 10:18:35;;;;;;;14.75;7.47;;;25.50;54.20;;;;;;7679754;22;80911;-63
2023/06/19 10:21:36;;;;;;;10.48;6.80;;;25.50;55.70;;;;;;7680485;22;80297;-68
2023/06/19 10:24:36;;;;;;;9.00;6.15;;;25.50;55.00;;;;;;7680441;22;80627;-70
2023/06/19 10:27:37;;;;;;;11.70;5.22;;;25.50;53.50;;;;;;7676854;22;80337;-70
2023/06/19 10:30:37;;;;;;;7.38;5.10;;;25.60;52.40;;;;;;7676966;22;80052;-69
2023/06/19 10:33:41;;;;;;;11.27;5.28;;;25.70;51.90;;;;;;7680042;22;80346;-66
2023/06/19 10:36:41;;;;;;;7.50;5.15;;;25.70;51.40;;;;;;7679416;22;80381;-73
2023/06/19 10:39:41;;;;;;;11.55;6.15;;;25.80;51.60;;;;;;7680910;22;81011;-70
2023/06/19 10:42:42;;;;;;;9.13;5.72;;;25.90;51.50;;;;;;7672615;22;80628;-60
2023/06/19 10:45:43;;;;;;;6.35;5.10;;;25.90;51.40;;;;;;7680370;22;80356;-71
2023/06/19 10:48:43;;;;;;;13.30;5.63;;;25.80;51.20;;;;;;7679341;22;80336;-64
2023/06/19 10:51:44;;;;;;;7.68;5.50;;;25.90;51.50;;;;;;7679273;22;81814;-66
2023/06/19 10:54:44;;;;;;;8.93;5.10;;;25.90;51.30;;;;;;7678156;22;80508;-69
2023/06/19 10:57:45;;;;;;;9.18;5.43;;;25.90;51.00;;;;;;7674431;22;81363;-68
2023/06/19 11:00:45;;;;;;;7.28;5.50;;;25.90;51.40;;;;;;7676306;22;80272;-67
2023/06/19 11:03:46;;;;;;;9.07;5.38;;;25.90;50.20;;;;;;7678599;22;80345;-65
2023/06/19 11:06:47;;;;;;;8.68;5.63;;;25.90;51.20;;;;;;7678544;22;80435;-67
2023/06/19 11:09:48;;;;;;;12.32;6.50;;;26.00;51.50;;;;;;7678763;22;81516;-67
2023/06/19 11:12:48;;;;;;;12.52;6.93;;;26.00;51.70;;;;;;7678467;22;80429;-68
2023/06/19 11:15:49;;;;;;;12.93;6.70;;;26.00;52.20;;;;;;7677333;22;80142;-69
2023/06/19 11:18:49;;;;;;;10.20;5.88;;;26.00;52.80;;;;;;7676921;22;80282;-70
2023/06/19 11:21:50;;;;;;;10.18;5.88;;;26.00;52.30;;;;;;7677622;22;81391;-69
2023/06/19 11:24:52;;;;;;;14.50;6.45;;;26.00;51.80;;;;;;7678155;22;81088;-70
2023/06/19 11:27:54;;;;;;;12.77;6.60;;;26.00;52.00;;;;;;7676576;22;80817;-68
2023/06/19 11:30:55;;;;;;;12.60;6.60;;;26.00;51.80;;;;;;7671637;22;81229;-70
2023/06/19 11:33:55;;;;;;;30.00;14.80;;;25.90;51.80;;;;;;7653681;22;83395;-68
2023/06/19 11:36:56;;;;;;;55.88;30.23;;;26.00;52.10;;;;;;7677933;22;82703;-69
2023/06/19 11:39:56;;;;;;;111.50;56.75;;;26.00;52.20;;;;;;7648893;22;84267;-68
2023/06/19 11:42:58;;;;;;;181.27;88.30;;;26.00;52.40;;;;;;7649043;22;86020;-73
2023/06/19 11:45:58;;;;;;;197.95;100.43;;;26.00;52.50;;;;;;7667141;22;83287;-72
2023/06/19 11:49:00;;;;;;;223.93;112.72;;;26.00;52.50;;;;;;7638214;22;86155;-70
2023/06/19 11:52:00;;;;;;;248.65;122.93;;;25.90;52.60;;;;;;7639752;22;88267;-70
2023/06/19 11:55:01;;;;;;;291.77;139.15;;;25.90;52.50;;;;;;7645282;22;87158;-70
2023/06/19 11:58:02;;;;;;;251.48;122.65;;;25.90;53.30;;;;;;7672655;22;85330;-70
2023/06/19 12:01:02;;;;;;;199.13;95.82;;;25.90;52.70;;;;;;7669759;22;85419;-73
2023/06/19 12:04:03;;;;;;;150.27;68.15;;;25.90;52.70;;;;;;7669307;22;85813;-70
2023/06/19 12:07:04;;;;;;;112.25;54.42;;;25.90;52.50;;;;;;7669503;22;83466;-72
2023/06/19 12:10:09;;;;;;;84.40;40.05;;;25.90;52.40;;;;;;7675379;22;83889;-62
2023/06/19 12:13:10;;;;;;;55.60;28.83;;;25.90;52.40;;;;;;7671753;22;83399;-66
2023/06/19 12:16:10;;;;;;;39.80;20.95;;;25.90;52.90;;;;;;7672920;22;83105;-66
2023/06/19 12:19:11;;;;;;;33.05;16.85;;;26.00;53.00;;;;;;7678329;22;83478;-67
2023/06/19 12:22:11;;;;;;;31.38;15.48;;;26.10;52.80;;;;;;7676274;22;83235;-68
2023/06/19 12:25:12;;;;;;;24.55;10.02;;;26.10;53.40;;;;;;7676702;22;83091;-61
2023/06/19 12:28:18;;;;;;;17.92;7.97;;;26.20;51.90;;;;;;7678681;22;82797;-63
2023/06/19 12:31:18;;;;;;;15.25;8.43;;;26.10;51.40;;;;;;7680841;22;83396;-68
2023/06/19 12:34:19;;;;;;;13.88;8.90;;;26.20;51.50;;;;;;7679319;22;80347;-68
2023/06/19 12:37:20;;;;;;;12.73;7.43;;;26.20;51.60;;;;;;7679502;22;80754;-71
2023/06/19 12:40:20;;;;;;;13.13;7.70;;;26.20;51.90;;;;;;7679556;22;80564;-65
2023/06/19 12:43:21;;;;;;;10.88;6.93;;;26.20;52.10;;;;;;7678236;22;80779;-66
2023/06/19 12:46:21;;;;;;;14.85;6.65;;;26.20;52.10;;;;;;7680642;22;80456;-71
2023/06/19 12:49:22;;;;;;;10.73;6.07;;;26.30;51.60;;;;;;7679889;22;80338;-74
2023/06/19 12:52:22;;;;;;;9.70;6.13;;;26.30;51.10;;;;;;7680614;22;80657;-71
2023/06/19 12:55:23;;;;;;;13.30;7.00;;;26.30;51.10;;;;;;7676738;22;80599;-73
2023/06/19 12:58:23;;;;;;;10.02;7.38;;;26.30;51.30;;;;;;7679379;22;80767;-60
2023/06/19 13:01:24;;;;;;;13.60;7.07;;;26.30;51.80;;;;;;7677880;22;80866;-74
2023/06/19 13:04:25;;;;;;;9.65;6.70;;;26.30;52.10;;;;;;7681223;22;80882;-66
2023/06/19 13:07:25;;;;;;;15.43;8.23;;;26.20;52.10;;;;;;7681242;22;80725;-66
2023/06/19 13:10:26;;;;;;;16.75;8.30;;;26.20;53.00;;;;;;7680146;22;80311;-65
2023/06/19 13:13:26;;;;;;;17.95;8.68;;;26.10;53.50;;;;;;7679598;22;80491;-63
2023/06/19 13:16:27;;;;;;;19.10;8.55;;;26.10;53.60;;;;;;7679699;22;80398;-67
2023/06/19 13:19:27;;;;;;;15.63;8.43;;;26.00;54.30;;;;;;7679227;22;80075;-69
2023/06/19 13:22:28;;;;;;;16.42;7.63;;;26.00;53.30;;;;;;7679225;22;80511;-73
2023/06/19 13:25:28;;;;;;;11.80;8.63;;;25.90;52.70;;;;;;7678346;22;80436;-75
2023/06/19 13:28:29;;;;;;;14.45;7.88;;;25.90;53.20;;;;;;7650368;22;80826;-65
2023/06/19 13:31:29;;;;;;;13.02;7.43;;;25.90;52.80;;;;;;7679191;22;80456;-63
2023/06/19 13:34:30;;;;;;;10.75;8.05;;;25.90;52.70;;;;;;7679979;22;81216;-61
2023/06/19 13:37:30;;;;;;;8.45;6.97;;;25.90;52.80;;;;;;7679275;22;80229;-61
2023/06/19 13:40:31;;;;;;;14.32;10.55;;;25.90;52.80;;;;;;7680546;22;82348;-60
2023/06/19 13:43:31;;;;;;;30.13;17.77;;;25.90;52.90;;;;;;7676652;22;82692;-63
2023/06/19 13:46:32;;;;;;;35.75;27.05;;;25.90;53.00;;;;;;7675599;22;83522;-62
2023/06/19 13:49:32;;;;;;;35.55;25.05;;;25.80;53.10;;;;;;7674715;22;83340;-66
2023/06/19 13:52:33;;;;;;;21.50;16.92;;;25.80;53.00;;;;;;7675561;22;83040;-66
2023/06/19 13:55:33;;;;;;;15.98;13.38;;;25.80;52.60;;;;;;7677682;22;83243;-67
2023/06/19 13:58:34;;;;;;;15.50;11.48;;;25.80;53.00;;;;;;7676488;22;83855;-70
2023/06/19 14:01:35;;;;;;;14.32;9.70;;;25.90;53.10;;;;;;7648254;22;83115;-69
2023/06/19 14:04:35;;;;;;;21.23;9.25;;;25.90;53.00;;;;;;7677796;22;81546;-65
2023/06/19 14:07:36;;;;;;;15.63;7.95;;;25.80;52.70;;;;;;7678878;22;80710;-66
2023/06/19 14:10:36;;;;;;;12.43;7.32;;;25.90;53.00;;;;;;7673874;22;80395;-67
2023/06/19 14:13:37;;;;;;;9.93;7.13;;;25.90;52.60;;;;;;7674986;22;80473;-65
2023/06/19 14:16:38;;;;;;;8.05;6.82;;;25.90;52.50;;;;;;7670956;22;80617;-65
2023/06/19 14:19:38;;;;;;;15.18;7.35;;;25.90;52.40;;;;;;7675524;22;80405;-67
2023/06/19 14:22:39;;;;;;;13.50;7.40;;;25.90;52.50;;;;;;7676476;22;80340;-70
2023/06/19 14:25:39;;;;;;;9.70;6.78;;;25.90;52.60;;;;;;7677979;22;80618;-74
2023/06/19 14:28:40;;;;;;;13.23;7.28;;;25.90;52.40;;;;;;7678727;22;81230;-67
2023/06/19 14:31:40;;;;;;;9.80;7.22;;;25.90;52.60;;;;;;7679134;22;80356;-67
2023/06/19 14:34:41;;;;;;;11.40;6.63;;;25.90;52.60;;;;;;7679321;22;80010;-72
2023/06/19 14:37:41;;;;;;;9.80;6.95;;;25.90;53.00;;;;;;7658610;22;81429;-73
2023/06/19 14:40:42;;;;;;;11.52;6.93;;;25.90;52.70;;;;;;7648728;22;83488;-70
2023/06/19 14:43:42;;;;;;;9.63;7.10;;;25.90;52.90;;;;;;7676543;22;80551;-68
2023/06/19 14:46:43;;;;;;;7.40;6.60;;;25.90;52.70;;;;;;7676023;22;80255;-70
2023/06/19 14:49:43;;;;;;;14.65;7.32;;;25.90;52.40;;;;;;7676459;22;80963;-75
2023/06/19 14:52:44;;;;;;;10.57;7.00;;;25.90;52.30;;;;;;7679999;22;80351;-69
2023/06/19 14:55:45;;;;;;;13.25;7.53;;;25.90;52.40;;;;;;7678942;22;80455;-63
2023/06/19 14:58:45;;;;;;;10.25;6.95;;;25.90;52.40;;;;;;7679483;22;80705;-64
2023/06/19 15:01:46;;;;;;;9.10;6.85;;;25.90;51.70;;;;;;7678478;22;80520;-61
2023/06/19 15:04:46;;;;;;;7.93;6.45;;;25.90;51.70;;;;;;7680171;22;80228;-63
2023/06/19 15:07:47;;;;;;;12.57;7.13;;;26.00;52.10;;;;;;7678545;22;80237;-62
2023/06/19 15:10:48;;;;;;;13.25;7.28;;;26.00;52.40;;;;;;7677580;22;80565;-60
2023/06/19 15:13:49;;;;;;;12.68;7.65;;;26.00;52.40;;;;;;7677637;22;80471;-70
2023/06/19 15:16:49;;;;;;;10.55;7.00;;;26.00;52.30;;;;;;7679817;22;80457;-72
2023/06/19 15:19:49;;;;;;;9.75;7.35;;;26.00;52.10;;;;;;7679150;22;81383;-76
2023/06/19 15:22:50;;;;;;;15.65;6.88;;;26.00;52.30;;;;;;7678111;22;80648;-75
2023/06/19 15:25:52;;;;;;;9.57;6.10;;;26.00;52.50;;;;;;7676233;22;80714;-69
2023/06/19 15:28:53;;;;;;;10.30;6.57;;;26.00;52.70;;;;;;7678086;22;80007;-68
2023/06/19 15:31:54;;;;;;;21.30;12.10;;;26.00;52.90;;;;;;7679095;22;80369;-72